createdAt,value
2018-06-03T00:01:11.328Z,101707.05
2018-06-03T00:03:40.800Z,101711.06
2018-06-03T00:06:10.221Z,101703.70
2018-06-03T00:08:39.660Z,101714.69
2018-06-03T00:11:09.076Z,101706.35
2018-06-03T00:13:38.489Z,101710.89
2018-06-03T00:16:07.942Z,101703.55
2018-06-03T00:18:37.350Z,101700.47
2018-06-03T00:21:23.791Z,101707.66
2018-06-03T00:23:53.256Z,101704.20
2018-06-03T00:26:22.749Z,101701.11
2018-06-03T00:28:52.167Z,101698.36
2018-06-03T00:31:21.596Z,101704.48
2018-06-03T00:33:51.051Z,101697.65
2018-06-03T00:36:37.269Z,101700.45
2018-06-03T00:39:08.841Z,101696.59
2018-06-03T00:41:38.323Z,101692.34
2018-06-03T00:44:07.760Z,101688.46
2018-06-03T00:46:37.182Z,101690.45
2018-06-03T00:49:06.774Z,101690.43
2018-06-03T00:51:36.216Z,101687.37
2018-06-03T00:54:05.629Z,101689.98
2018-06-03T00:57:42.285Z,101687.61
2018-06-03T01:00:11.874Z,101688.08
2018-06-03T01:02:41.316Z,101683.83
2018-06-03T01:05:10.753Z,101683.44
2018-06-03T01:07:40.152Z,101678.72
2018-06-03T01:10:09.576Z,101684.28
2018-06-03T01:12:39.008Z,101690.35
2018-06-03T01:15:08.551Z,101685.10
2018-06-03T01:17:37.971Z,101689.05
2018-06-03T01:20:07.355Z,101680.48
2018-06-03T01:22:36.946Z,101679.64
2018-06-03T01:25:06.368Z,101676.29
2018-06-03T01:27:35.809Z,101680.78
2018-06-03T01:30:05.325Z,101682.59
2018-06-03T01:32:34.813Z,101678.52
2018-06-03T01:35:04.257Z,101677.90
2018-06-03T01:37:33.704Z,101679.04
2018-06-03T01:40:03.149Z,101677.66
2018-06-03T01:42:32.569Z,101672.58
2018-06-03T01:45:01.990Z,101672.73
2018-06-03T01:47:31.409Z,101672.64
2018-06-03T01:50:00.903Z,101669.05
2018-06-03T01:52:30.319Z,101675.55
2018-06-03T01:54:59.731Z,101667.27
2018-06-03T01:57:29.112Z,101674.46
2018-06-03T01:59:58.562Z,101669.84
2018-06-03T02:02:27.957Z,101670.48
2018-06-03T02:04:57.400Z,101671.34
2018-06-03T02:07:26.855Z,101670.48
2018-06-03T02:09:56.296Z,101670.13
2018-06-03T02:12:25.714Z,101670.14
2018-06-03T02:14:55.139Z,101667.44
2018-06-03T02:17:24.581Z,101670.50
2018-06-03T02:19:54.030Z,101663.28
2018-06-03T02:22:23.480Z,101672.55
2018-06-03T02:24:52.897Z,101666.02
2018-06-03T02:27:22.350Z,101666.80
2018-06-03T02:29:51.785Z,101664.73
2018-06-03T02:32:21.228Z,101661.38
2018-06-03T02:34:51.721Z,101657.98
2018-06-03T02:37:21.179Z,101661.61
2018-06-03T02:39:50.642Z,101665.06
2018-06-03T02:42:20.048Z,101669.03
2018-06-03T02:44:49.506Z,101665.77
2018-06-03T02:47:18.921Z,101665.42
2018-06-03T02:49:48.334Z,101663.50
2018-06-03T02:52:17.772Z,101662.22
2018-06-03T02:54:47.201Z,101658.55
2018-06-03T02:57:16.637Z,101658.09
2018-06-03T02:59:46.051Z,101656.61
2018-06-03T03:02:15.453Z,101665.79
2018-06-03T03:04:44.864Z,101658.45
2018-06-03T03:07:14.276Z,101658.31
2018-06-03T03:09:43.701Z,101660.52
2018-06-03T03:12:13.275Z,101659.39
2018-06-03T03:14:42.712Z,101659.65
2018-06-03T03:17:12.252Z,101657.09
2018-06-03T03:19:41.728Z,101653.71
2018-06-03T03:22:11.128Z,101649.47
2018-06-03T03:24:40.544Z,101652.05
2018-06-03T03:27:09.971Z,101650.11
2018-06-03T03:29:39.387Z,101654.95
2018-06-03T03:32:08.848Z,101657.42
2018-06-03T03:34:38.285Z,101658.98
2018-06-03T03:37:07.689Z,101658.81
2018-06-03T03:39:37.105Z,101653.77
2018-06-03T03:42:06.527Z,101660.61
2018-06-03T03:44:35.938Z,101662.55
2018-06-03T03:47:05.385Z,101650.59
2018-06-03T03:49:34.800Z,101651.48
2018-06-03T03:52:04.211Z,101659.46
2018-06-03T03:54:33.623Z,101656.95
2018-06-03T03:57:03.141Z,101654.78
2018-06-03T03:59:32.267Z,101656.36
2018-06-03T04:02:01.837Z,101652.56
2018-06-03T04:04:31.233Z,101653.99
2018-06-03T04:07:00.663Z,101648.72
2018-06-03T04:09:30.108Z,101649.41
2018-06-03T04:11:59.503Z,101650.87
2018-06-03T04:14:28.949Z,101654.05
2018-06-03T04:16:58.463Z,101655.56
2018-06-03T04:19:27.864Z,101652.43
2018-06-03T04:21:57.323Z,101653.19
2018-06-03T04:24:26.722Z,101652.78
2018-06-03T04:26:56.121Z,101653.75
2018-06-03T04:29:25.545Z,101649.54
2018-06-03T04:31:55.012Z,101656.58
2018-06-03T04:34:24.433Z,101652.12
2018-06-03T04:36:53.869Z,101660.18
2018-06-03T04:39:23.289Z,101665.43
2018-06-03T04:41:52.744Z,101662.60
2018-06-03T04:44:22.200Z,101656.90
2018-06-03T04:46:51.634Z,101661.42
2018-06-03T04:49:21.095Z,101665.84
2018-06-03T04:51:50.523Z,101670.03
2018-06-03T04:54:19.947Z,101665.72
2018-06-03T04:56:49.369Z,101672.36
2018-06-03T04:59:18.845Z,101675.45
2018-06-03T05:01:48.393Z,101677.83
2018-06-03T05:04:17.862Z,101676.33
2018-06-03T05:06:47.276Z,101678.41
2018-06-03T05:09:17.488Z,101681.30
2018-06-03T05:11:46.874Z,101676.21
2018-06-03T05:14:16.282Z,101678.14
2018-06-03T05:16:45.902Z,101676.40
2018-06-03T05:19:15.400Z,101680.61
2018-06-03T05:21:44.850Z,101684.48
2018-06-03T05:24:14.248Z,101687.45
2018-06-03T05:26:43.708Z,101686.11
2018-06-03T05:29:13.134Z,101683.63
2018-06-03T05:31:42.550Z,101691.65
2018-06-03T05:34:11.948Z,101691.63
2018-06-03T05:36:41.419Z,101696.06
2018-06-03T05:39:10.944Z,101701.00
2018-06-03T05:41:40.385Z,101703.23
2018-06-03T05:44:09.832Z,101706.68
2018-06-03T05:46:39.215Z,101701.22
2018-06-03T05:49:08.647Z,101701.42
2018-06-03T05:51:38.043Z,101700.61
2018-06-03T05:54:07.906Z,101697.97
2018-06-03T05:56:37.310Z,101703.23
2018-06-03T05:59:06.745Z,101703.27
2018-06-03T06:01:36.158Z,101707.66
2018-06-03T06:04:05.599Z,101715.15
2018-06-03T06:06:35.038Z,101715.86
2018-06-03T06:09:06.446Z,101722.63
2018-06-03T06:11:35.834Z,101718.28
2018-06-03T06:14:05.261Z,101716.78
2018-06-03T06:16:34.727Z,101718.42
2018-06-03T06:19:04.187Z,101730.22
2018-06-03T06:21:33.608Z,101728.84
2018-06-03T06:24:03.159Z,101730.62
2018-06-03T06:26:32.616Z,101730.97
2018-06-03T06:29:02.242Z,101734.73
2018-06-03T06:31:31.680Z,101731.19
2018-06-03T06:34:01.167Z,101735.06
2018-06-03T06:36:31.824Z,101739.34
2018-06-03T06:39:02.141Z,101734.78
2018-06-03T06:41:31.665Z,101726.63
2018-06-03T06:44:01.269Z,101734.42
2018-06-03T06:46:30.671Z,101732.46
2018-06-03T06:49:00.834Z,101730.51
2018-06-03T06:51:30.255Z,101728.50
2018-06-03T06:54:00.511Z,101733.72
2018-06-03T06:56:30.036Z,101736.58
2018-06-03T06:58:59.453Z,101734.94
2018-06-03T07:01:28.883Z,101733.94
2018-06-03T07:03:58.295Z,101744.58
2018-06-03T07:06:27.752Z,101747.82
2018-06-03T07:08:57.162Z,101746.66
2018-06-03T07:11:26.612Z,101747.47
2018-06-03T07:13:56.092Z,101747.79
2018-06-03T07:16:25.542Z,101755.13
2018-06-03T07:18:54.986Z,101754.57
2018-06-03T07:21:24.451Z,101749.21
2018-06-03T07:23:54.072Z,101750.06
2018-06-03T07:26:23.568Z,101745.95
2018-06-03T07:28:52.992Z,101743.92
2018-06-03T07:31:22.522Z,101747.38
2018-06-03T07:33:51.959Z,101741.99
2018-06-03T07:36:22.649Z,101750.81
2018-06-03T07:38:52.080Z,101749.52
2018-06-03T07:41:21.510Z,101748.87
2018-06-03T07:43:51.051Z,101756.45
2018-06-03T07:46:20.521Z,101756.03
2018-06-03T07:48:49.938Z,101750.30
2018-06-03T07:51:19.389Z,101757.21
2018-06-03T07:53:48.811Z,101755.01
2018-06-03T07:56:18.243Z,101746.81
2018-06-03T07:58:47.669Z,101749.15
2018-06-03T08:01:17.104Z,101751.05
2018-06-03T08:03:46.565Z,101747.38
2018-06-03T08:06:15.967Z,101747.23
2018-06-03T08:08:45.424Z,101742.92
2018-06-03T08:11:14.873Z,101743.75
2018-06-03T08:13:44.353Z,101745.67
2018-06-03T08:16:13.788Z,101743.44
2018-06-03T08:18:43.227Z,101751.80
2018-06-03T08:21:12.665Z,101748.00
2018-06-03T08:23:42.457Z,101744.30
2018-06-03T08:26:12.059Z,101747.18
2018-06-03T08:28:41.479Z,101741.33
2018-06-03T08:31:10.927Z,101735.14
2018-06-03T08:33:40.339Z,101737.01
2018-06-03T08:36:09.788Z,101737.38
2018-06-03T08:38:39.300Z,101731.52
2018-06-03T08:41:08.745Z,101731.19
2018-06-03T08:43:38.210Z,101734.11
2018-06-03T08:46:07.646Z,101725.69
2018-06-03T08:48:37.140Z,101731.53
2018-06-03T08:51:06.559Z,101736.41
2018-06-03T08:53:35.995Z,101738.69
2018-06-03T08:56:05.418Z,101736.33
2018-06-03T08:58:34.855Z,101739.68
2018-06-03T09:01:04.268Z,101739.42
2018-06-03T09:03:33.716Z,101739.59
2018-06-03T09:06:03.125Z,101740.80
2018-06-03T09:08:32.611Z,101739.40
2018-06-03T09:11:02.112Z,101742.44
2018-06-03T09:13:31.582Z,101735.42
2018-06-03T09:16:01.054Z,101738.02
2018-06-03T09:18:30.459Z,101737.68
2018-06-03T09:20:59.930Z,101737.25
2018-06-03T09:23:29.369Z,101736.95
2018-06-03T09:25:58.817Z,101734.40
2018-06-03T09:28:28.257Z,101734.59
2018-06-03T09:31:02.973Z,101724.96
2018-06-03T09:33:32.401Z,101730.44
2018-06-03T09:36:01.851Z,101734.25
2018-06-03T09:38:31.309Z,101735.30
2018-06-03T09:41:00.748Z,101728.84
2018-06-03T09:43:30.183Z,101724.93
2018-06-03T09:45:59.619Z,101720.57
2018-06-03T09:48:29.094Z,101721.25
2018-06-03T09:50:58.825Z,101716.94
2018-06-03T09:53:28.338Z,101710.68
2018-06-03T09:55:57.850Z,101711.97
2018-06-03T09:58:27.284Z,101715.08
2018-06-03T10:00:56.736Z,101710.84
2018-06-03T10:03:26.183Z,101707.83
2018-06-03T10:05:55.656Z,101710.63
2018-06-03T10:08:25.102Z,101712.37
2018-06-03T10:10:54.550Z,101714.14
2018-06-03T10:13:23.971Z,101719.59
2018-06-03T10:15:53.422Z,101714.16
2018-06-03T10:18:22.910Z,101717.69
2018-06-03T10:20:52.362Z,101717.35
2018-06-03T10:23:21.800Z,101711.44
2018-06-03T10:25:51.285Z,101710.95
2018-06-03T10:28:20.791Z,101713.01
2018-06-03T10:30:50.297Z,101714.80
2018-06-03T10:33:19.783Z,101710.52
2018-06-03T10:35:49.281Z,101710.80
2018-06-03T10:38:18.909Z,101707.87
2018-06-03T10:40:48.373Z,101706.66
2018-06-03T10:43:17.835Z,101702.38
2018-06-03T10:45:47.465Z,101692.50
2018-06-03T10:48:17.062Z,101692.23
2018-06-03T10:50:46.608Z,101695.20
2018-06-03T10:53:16.210Z,101690.31
2018-06-03T10:55:45.697Z,101691.77
2018-06-03T10:58:15.219Z,101691.46
2018-06-03T11:00:44.767Z,101683.08
2018-06-03T11:03:14.316Z,101688.97
2018-06-03T11:05:43.831Z,101682.47
2018-06-03T11:08:13.313Z,101684.20
2018-06-03T11:10:42.822Z,101672.46
2018-06-03T11:13:12.249Z,101670.55
2018-06-03T11:15:41.660Z,101671.68
2018-06-03T11:18:11.110Z,101668.30
2018-06-03T11:20:40.592Z,101664.42
2018-06-03T11:23:10.088Z,101666.34
2018-06-03T11:25:39.537Z,101661.14
2018-06-03T11:28:08.992Z,101662.36
2018-06-03T11:30:38.451Z,101662.99
2018-06-03T11:33:07.858Z,101658.77
2018-06-03T11:35:37.312Z,101658.19
2018-06-03T11:38:07.450Z,101661.00
2018-06-03T11:40:36.915Z,101652.76
2018-06-03T11:43:06.347Z,101650.00
2018-06-03T11:45:35.844Z,101646.36
2018-06-03T11:48:05.275Z,101648.32
2018-06-03T11:50:34.771Z,101647.17
2018-06-03T11:53:04.257Z,101646.34
2018-06-03T11:55:33.639Z,101644.07
2018-06-03T11:58:51.897Z,101642.34
2018-06-03T12:01:21.342Z,101642.92
2018-06-03T12:03:50.772Z,101632.81
2018-06-03T12:06:20.214Z,101632.67
2018-06-03T12:08:49.688Z,101634.50
2018-06-03T12:11:18.814Z,101634.78
2018-06-03T12:13:48.249Z,101636.30
2018-06-03T12:16:17.652Z,101627.85
2018-06-03T12:18:47.121Z,101631.79
2018-06-03T12:21:16.559Z,101630.80
2018-06-03T12:23:45.985Z,101631.86
2018-06-03T12:26:15.420Z,101629.41
2018-06-03T12:28:44.919Z,101627.95
2018-06-03T12:31:14.327Z,101618.58
2018-06-03T12:33:43.784Z,101627.98
2018-06-03T12:36:13.257Z,101625.57
2018-06-03T12:38:42.715Z,101623.70
2018-06-03T12:41:12.126Z,101619.52
2018-06-03T12:43:41.593Z,101619.34
2018-06-03T12:46:11.044Z,101615.22
2018-06-03T12:48:40.456Z,101605.19
2018-06-03T12:51:09.867Z,101602.41
2018-06-03T12:53:39.303Z,101602.34
2018-06-03T12:56:08.785Z,101598.46
2018-06-03T12:58:38.207Z,101602.41
2018-06-03T13:01:07.711Z,101596.73
2018-06-03T13:03:37.112Z,101598.14
2018-06-03T13:06:06.567Z,101595.08
2018-06-03T13:08:35.975Z,101598.99
2018-06-03T13:11:05.394Z,101591.52
2018-06-03T13:13:34.818Z,101581.95
2018-06-03T13:16:04.249Z,101593.00
2018-06-03T13:18:33.689Z,101587.97
2018-06-03T13:21:03.089Z,101589.16
2018-06-03T13:23:32.513Z,101595.31
2018-06-03T13:26:01.978Z,101586.91
2018-06-03T13:28:31.468Z,101581.92
2018-06-03T13:31:00.907Z,101582.84
2018-06-03T13:33:30.327Z,101573.64
2018-06-03T13:35:59.805Z,101578.57
2018-06-03T13:38:29.240Z,101572.61
2018-06-03T13:40:58.702Z,101571.16
2018-06-03T13:43:28.116Z,101569.19
2018-06-03T13:45:57.540Z,101568.51
2018-06-03T13:48:26.695Z,101559.56
2018-06-03T13:50:56.129Z,101557.86
2018-06-03T13:53:25.578Z,101551.51
2018-06-03T13:55:55.030Z,101552.97
2018-06-03T13:58:24.450Z,101545.31
2018-06-03T14:00:53.877Z,101536.27
2018-06-03T14:03:23.306Z,101537.02
2018-06-03T14:05:52.772Z,101538.50
2018-06-03T14:08:22.194Z,101533.63
2018-06-03T14:10:51.601Z,101524.66
2018-06-03T14:13:21.069Z,101518.45
2018-06-03T14:15:50.501Z,101520.14
2018-06-03T14:18:19.923Z,101518.08
2018-06-03T14:20:49.403Z,101510.11
2018-06-03T14:23:18.560Z,101505.21
2018-06-03T14:25:47.948Z,101506.13
2018-06-03T14:28:17.350Z,101501.05
2018-06-03T14:30:46.784Z,101499.94
2018-06-03T14:33:16.219Z,101499.08
2018-06-03T14:35:45.660Z,101495.12
2018-06-03T14:38:15.073Z,101493.59
2018-06-03T14:40:44.515Z,101484.25
2018-06-03T14:43:13.949Z,101483.14
2018-06-03T14:45:43.375Z,101481.81
2018-06-03T14:48:12.831Z,101480.41
2018-06-03T14:50:42.272Z,101484.97
2018-06-03T14:53:11.724Z,101473.45
2018-06-03T14:55:41.179Z,101467.72
2018-06-03T14:58:10.621Z,101464.86
2018-06-03T15:00:40.002Z,101463.40
2018-06-03T15:03:09.434Z,101465.73
2018-06-03T15:05:38.846Z,101453.97
2018-06-03T15:08:08.320Z,101449.94
2018-06-03T15:10:37.749Z,101453.47
2018-06-03T15:13:07.170Z,101446.42
2018-06-03T15:15:36.688Z,101445.66
2018-06-03T15:18:06.133Z,101441.20
2018-06-03T15:20:35.562Z,101436.06
2018-06-03T15:23:05.099Z,101437.41
2018-06-03T15:25:34.541Z,101430.81
2018-06-03T15:28:03.985Z,101423.55
2018-06-03T15:30:33.398Z,101422.16
2018-06-03T15:33:02.825Z,101414.59
2018-06-03T15:35:32.230Z,101412.52
2018-06-03T15:38:01.649Z,101410.23
2018-06-03T15:40:31.134Z,101416.23
2018-06-03T15:43:00.556Z,101415.53
2018-06-03T15:45:29.998Z,101407.58
2018-06-03T15:47:59.455Z,101398.64
2018-06-03T15:50:29.015Z,101402.22
2018-06-03T15:52:58.458Z,101395.89
2018-06-03T15:55:27.887Z,101395.69
2018-06-03T15:57:57.322Z,101397.69
2018-06-03T16:00:26.729Z,101396.59
2018-06-03T16:02:56.162Z,101406.85
2018-06-03T16:05:25.579Z,101390.41
2018-06-03T16:07:55.060Z,101390.30
2018-06-03T16:10:24.565Z,101392.35
2018-06-03T16:12:53.980Z,101387.25
2018-06-03T16:15:23.424Z,101386.22
2018-06-03T16:17:52.847Z,101387.17
2018-06-03T16:20:22.259Z,101378.73
2018-06-03T16:22:51.701Z,101371.42
2018-06-03T16:25:21.126Z,101375.37
2018-06-03T16:27:50.615Z,101375.63
2018-06-03T16:30:19.997Z,101367.75
2018-06-03T16:32:49.414Z,101364.33
2018-06-03T16:35:18.834Z,101365.11
2018-06-03T16:37:47.987Z,101363.73
2018-06-03T16:40:17.415Z,101361.27
2018-06-03T16:42:46.831Z,101358.93
2018-06-03T16:45:16.292Z,101353.84
2018-06-03T16:47:45.719Z,101355.25
2018-06-03T16:50:15.168Z,101355.42
2018-06-03T16:52:44.624Z,101354.36
2018-06-03T16:55:14.062Z,101358.89
2018-06-03T16:57:43.459Z,101351.09
2018-06-03T17:00:12.884Z,101353.53
2018-06-03T17:02:42.315Z,101347.52
2018-06-03T17:05:11.715Z,101352.17
2018-06-03T17:07:41.117Z,101346.09
2018-06-03T17:10:10.536Z,101345.31
2018-06-03T17:12:39.991Z,101342.13
2018-06-03T17:15:09.409Z,101339.25
2018-06-03T17:17:38.909Z,101332.23
2018-06-03T17:20:08.365Z,101331.51
2018-06-03T17:22:37.818Z,101327.80
2018-06-03T17:25:07.234Z,101328.48
2018-06-03T17:27:36.671Z,101323.90
2018-06-03T17:30:06.249Z,101326.59
2018-06-03T17:32:35.667Z,101328.02
2018-06-03T17:35:05.091Z,101323.94
2018-06-03T17:37:34.505Z,101315.92
2018-06-03T17:40:04.076Z,101314.59
2018-06-03T17:42:33.493Z,101309.48
2018-06-03T17:45:02.936Z,101315.86
2018-06-03T17:47:32.564Z,101306.27
2018-06-03T17:50:02.035Z,101317.48
2018-06-03T17:52:31.476Z,101314.83
2018-06-03T17:55:00.886Z,101319.30
2018-06-03T17:57:30.291Z,101316.44
2018-06-03T17:59:59.682Z,101313.89
2018-06-03T18:02:29.091Z,101311.98
2018-06-03T18:04:58.244Z,101305.56
2018-06-03T18:07:27.734Z,101302.79
2018-06-03T18:09:57.148Z,101298.36
2018-06-03T18:12:26.586Z,101296.94
2018-06-03T18:14:56.027Z,101291.20
2018-06-03T18:17:25.434Z,101298.09
2018-06-03T18:19:54.876Z,101299.86
2018-06-03T18:22:24.364Z,101302.47
2018-06-03T18:24:53.783Z,101300.58
2018-06-03T18:27:23.213Z,101305.27
2018-06-03T18:29:52.680Z,101307.70
2018-06-03T18:32:22.252Z,101303.02
2018-06-03T18:34:51.584Z,101310.94
2018-06-03T18:37:21.003Z,101305.41
2018-06-03T18:39:50.444Z,101309.94
2018-06-03T18:42:20.097Z,101311.48
2018-06-03T18:44:49.506Z,101313.85
2018-06-03T18:47:18.930Z,101312.27
2018-06-03T18:49:48.400Z,101311.02
2018-06-03T18:52:17.847Z,101308.73
2018-06-03T18:54:47.339Z,101313.31
2018-06-03T18:57:16.758Z,101312.72
2018-06-03T18:59:46.283Z,101312.00
2018-06-03T19:02:15.749Z,101309.55
2018-06-03T19:04:45.172Z,101308.84
2018-06-03T19:07:14.602Z,101302.88
2018-06-03T19:09:46.505Z,101308.61
2018-06-03T19:12:21.356Z,101297.95
2018-06-03T19:14:52.004Z,101305.30
2018-06-03T19:17:25.242Z,101303.74
2018-06-03T19:19:55.580Z,101305.34
2018-06-03T19:22:25.921Z,101301.26
2018-06-03T19:24:55.376Z,101302.30
2018-06-03T19:27:24.885Z,101307.75
2018-06-03T19:29:54.314Z,101301.38
2018-06-03T19:32:23.716Z,101309.84
2018-06-03T19:34:53.130Z,101303.80
2018-06-03T19:37:22.523Z,101308.91
2018-06-03T19:39:51.949Z,101313.05
2018-06-03T19:42:21.490Z,101317.50
2018-06-03T19:44:51.027Z,101320.73
2018-06-03T19:47:20.468Z,101324.28
2018-06-03T19:49:49.904Z,101322.75
2018-06-03T19:52:19.417Z,101330.89
2018-06-03T19:54:49.522Z,101325.04
2018-06-03T19:57:18.948Z,101328.85
2018-06-03T19:59:48.425Z,101332.72
2018-06-03T20:02:17.811Z,101329.13
2018-06-03T20:04:47.233Z,101336.69
2018-06-03T20:07:16.656Z,101336.17
2018-06-03T20:09:46.100Z,101334.09
2018-06-03T20:12:15.569Z,101326.19
2018-06-03T20:14:45.005Z,101332.91
2018-06-03T20:17:14.432Z,101329.97
2018-06-03T20:19:43.984Z,101332.91
2018-06-03T20:22:13.550Z,101334.09
2018-06-03T20:24:42.945Z,101331.17
2018-06-03T20:27:12.363Z,101329.97
2018-06-03T20:29:41.934Z,101331.68
2018-06-03T20:32:11.569Z,101338.73
2018-06-03T20:34:41.018Z,101332.34
2018-06-03T20:37:10.460Z,101334.78
2018-06-03T20:39:40.085Z,101330.61
2018-06-03T20:42:09.513Z,101332.64
2018-06-03T20:44:39.120Z,101335.34
2018-06-03T20:47:08.590Z,101344.03
2018-06-03T20:49:38.059Z,101333.33
2018-06-03T20:52:07.498Z,101338.95
2018-06-03T20:54:41.935Z,101339.56
2018-06-03T20:57:11.486Z,101340.59
2018-06-03T20:59:40.996Z,101340.77
2018-06-03T21:02:11.409Z,101333.59
2018-06-03T21:04:40.905Z,101332.53
2018-06-03T21:07:10.324Z,101333.39
2018-06-03T21:09:39.816Z,101336.27
2018-06-03T21:12:09.293Z,101337.42
2018-06-03T21:14:38.702Z,101339.27
2018-06-03T21:17:08.141Z,101346.48
2018-06-03T21:19:37.559Z,101341.19
2018-06-03T21:22:06.997Z,101338.23
2018-06-03T21:24:36.472Z,101344.23
2018-06-03T21:27:05.952Z,101349.55
2018-06-03T21:29:35.431Z,101348.92
2018-06-03T21:32:04.944Z,101340.86
2018-06-03T21:34:34.388Z,101338.87
2018-06-03T21:37:03.855Z,101340.80
2018-06-03T21:39:33.351Z,101345.34
2018-06-03T21:42:02.831Z,101338.98
2018-06-03T21:44:32.279Z,101337.05
2018-06-03T21:47:01.734Z,101332.77
2018-06-03T21:49:31.231Z,101328.03
2018-06-03T21:52:00.647Z,101334.81
2018-06-03T21:54:30.078Z,101331.54
2018-06-03T21:56:59.530Z,101330.80
2018-06-03T21:59:28.989Z,101332.00
2018-06-03T22:01:58.458Z,101327.01
2018-06-03T22:04:27.915Z,101320.80
2018-06-03T22:06:57.415Z,101318.58
2018-06-03T22:09:26.871Z,101322.28
2018-06-03T22:11:56.307Z,101320.99
2018-06-03T22:14:25.768Z,101316.80
2018-06-03T22:16:55.236Z,101319.73
2018-06-03T22:19:24.671Z,101324.16
2018-06-03T22:21:54.106Z,101313.59
2018-06-03T22:24:23.509Z,101316.36
2018-06-03T22:26:52.956Z,101314.20
2018-06-03T22:29:22.419Z,101311.66
2018-06-03T22:31:51.852Z,101320.63
2018-06-03T22:34:21.286Z,101313.34
2018-06-03T22:36:50.746Z,101311.42
2018-06-03T22:39:20.231Z,101307.26
2018-06-03T22:41:49.611Z,101312.55
2018-06-03T22:44:19.091Z,101316.08
2018-06-03T22:46:48.527Z,101312.48
2018-06-03T22:49:17.700Z,101315.03
2018-06-03T22:51:47.155Z,101321.65
2018-06-03T22:54:16.626Z,101317.61
2018-06-03T22:58:01.349Z,101316.63
2018-06-03T23:00:33.678Z,101322.46
2018-06-03T23:03:08.323Z,101323.45
2018-06-03T23:05:37.764Z,101320.74
2018-06-03T23:08:07.245Z,101319.41
2018-06-03T23:10:36.718Z,101313.59
2018-06-03T23:13:06.371Z,101315.72
2018-06-03T23:15:35.826Z,101311.97
2018-06-03T23:18:05.281Z,101312.43
2018-06-03T23:20:34.710Z,101304.41
2018-06-03T23:23:04.195Z,101312.48
2018-06-03T23:25:33.691Z,101305.67
2018-06-03T23:28:03.137Z,101305.20
2018-06-03T23:30:32.800Z,101303.99
2018-06-03T23:33:02.224Z,101306.02
2018-06-03T23:35:31.682Z,101307.38
2018-06-03T23:38:01.135Z,101304.53
2018-06-03T23:40:30.603Z,101299.92
2018-06-03T23:43:00.001Z,101297.27
2018-06-03T23:45:29.403Z,101298.98
2018-06-03T23:47:58.843Z,101293.52
2018-06-03T23:50:28.311Z,101295.58
2018-06-03T23:52:57.761Z,101295.78
2018-06-03T23:55:27.213Z,101297.84
2018-06-03T23:57:56.653Z,101302.21
